| Date | Time | Temp. (oF) | Dew Point (oF) | Rel. Hum. (%) | Press. (in.) | Wind Dir. | Wind Speed (mph) | Hourly Rainfall (in.) |
|
|---|---|---|---|---|---|---|---|---|---|
| 1 | 10/05 | 00:00 | 62 | 54 | 77 | 30.05 | SSW | 0 | 0.00 |
| 2 | 10/04 | 23:00 | 65 | 54 | 70 | 30.04 | SSW | 0 | 0.00 |
| 3 | 10/04 | 22:00 | 67 | 54 | 64 | 30.04 | SW | 2 | 0.00 |
| 4 | 10/04 | 21:00 | 70 | 54 | 59 | 30.03 | SSW | 1 | 0.00 |
| 5 | 10/04 | 20:00 | 71 | 53 | 55 | 30.01 | S | 2 | 0.00 |
| 6 | 10/04 | 19:00 | 74 | 54 | 50 | 29.99 | S | 4 | 0.00 |
| 7 | 10/04 | 18:00 | 78 | 52 | 42 | 29.96 | S | 4 | 0.00 |
| 8 | 10/04 | 17:00 | 80 | 51 | 37 | 29.96 | SW | 5 | 0.00 |
| 9 | 10/04 | 16:00 | 81 | 51 | 36 | 29.97 | WSW | 7 | 0.00 |
| 10 | 10/04 | 15:00 | 81 | 51 | 36 | 30.00 | SW | 7 | 0.00 |
| 11 | 10/04 | 14:00 | 81 | 54 | 40 | 30.02 | S | 6 | 0.00 |
| 12 | 10/04 | 13:00 | 79 | 53 | 41 | 30.05 | WSW | 7 | 0.00 |
| 13 | 10/04 | 12:00 | 77 | 53 | 45 | 30.06 | SW | 4 | 0.00 |
| 14 | 10/04 | 11:00 | 75 | 54 | 50 | 30.08 | SSW | 4 | 0.00 |
| 15 | 10/04 | 10:00 | 68 | 59 | 74 | 30.09 | SSW | 4 | 0.00 |
| 16 | 10/04 | 09:00 | 59 | 57 | 96 | 30.08 | SSW | 0 | 0.00 |
| 17 | 10/04 | 08:00 | 56 | 54 | 94 | 30.07 | WSW | 0 | 0.00 |
| 18 | 10/04 | 07:00 | 57 | 54 | 92 | 30.06 | WSW | 0 | 0.00 |
| 19 | 10/04 | 06:00 | 58 | 55 | 91 | 30.05 | SW | 0 | 0.00 |
| 20 | 10/04 | 05:00 | 59 | 56 | 90 | 30.04 | SSW | 0 | 0.00 |
| 21 | 10/04 | 04:00 | 61 | 57 | 89 | 30.03 | SW | 0 | 0.00 |
| 22 | 10/04 | 03:00 | 63 | 58 | 86 | 30.04 | SW | 0 | 0.00 |
| 23 | 10/04 | 02:00 | 65 | 59 | 83 | 30.04 | SSW | 2 | 0.00 |
| 24 | 10/04 | 01:00 | 67 | 60 | 79 | 30.04 | SSW | 2 | 0.00 |